sensor_id;sensor_type;location;lat;lon;timestamp;pressure;altitude;pressure_sealevel;temperature;humidity
23996;BME280;12207;50.076;8.848;2022-11-24T00:01:51;99247.44;;;6.29;100.00
23996;BME280;12207;50.076;8.848;2022-11-24T00:04:17;99249.03;;;6.27;100.00
23996;BME280;12207;50.076;8.848;2022-11-24T00:06:44;99251.22;;;6.21;100.00
23996;BME280;12207;50.076;8.848;2022-11-24T00:09:10;99249.50;;;6.20;100.00
23996;BME280;12207;50.076;8.848;2022-11-24T00:11:37;99261.38;;;6.21;100.00
23996;BME280;12207;50.076;8.848;2022-11-24T00:14:04;99263.19;;;6.23;100.00
23996;BME280;12207;50.076;8.848;2022-11-24T00:16:31;99258.13;;;6.23;100.00
23996;BME280;12207;50.076;8.848;2022-11-24T00:18:59;99251.31;;;6.22;100.00
23996;BME280;12207;50.076;8.848;2022-11-24T00:21:26;99247.13;;;6.23;100.00
23996;BME280;12207;50.076;8.848;2022-11-24T00:23:53;99249.66;;;6.23;100.00
23996;BME280;12207;50.076;8.848;2022-11-24T00:28:47;99257.09;;;6.20;100.00
23996;BME280;12207;50.076;8.848;2022-11-24T00:31:19;99249.66;;;6.23;100.00
23996;BME280;12207;50.076;8.848;2022-11-24T00:33:46;99261.38;;;6.21;100.00
23996;BME280;12207;50.076;8.848;2022-11-24T00:36:13;99261.03;;;6.14;100.00
23996;BME280;12207;50.076;8.848;2022-11-24T00:38:40;99253.69;;;6.19;100.00
23996;BME280;12207;50.076;8.848;2022-11-24T00:41:07;99251.16;;;6.19;100.00
23996;BME280;12207;50.076;8.848;2022-11-24T00:43:33;99253.59;;;6.18;100.00
23996;BME280;12207;50.076;8.848;2022-11-24T00:46:00;99256.06;;;6.16;100.00
23996;BME280;12207;50.076;8.848;2022-11-24T00:48:27;99258.66;;;6.18;100.00
23996;BME280;12207;50.076;8.848;2022-11-24T00:50:54;99268.38;;;6.25;100.00
23996;BME280;12207;50.076;8.848;2022-11-24T00:53:21;99275.31;;;6.29;100.00
23996;BME280;12207;50.076;8.848;2022-11-24T00:55:48;99278.34;;;6.22;100.00
23996;BME280;12207;50.076;8.848;2022-11-24T00:58:15;99286.38;;;6.14;100.00
23996;BME280;12207;50.076;8.848;2022-11-24T01:00:41;99287.06;;;6.12;100.00
23996;BME280;12207;50.076;8.848;2022-11-24T01:03:08;99282.34;;;6.18;100.00
23996;BME280;12207;50.076;8.848;2022-11-24T01:05:35;99290.63;;;6.15;100.00
23996;BME280;12207;50.076;8.848;2022-11-24T01:08:02;99296.59;;;6.16;100.00
23996;BME280;12207;50.076;8.848;2022-11-24T01:10:28;99299.31;;;6.19;100.00
23996;BME280;12207;50.076;8.848;2022-11-24T01:12:55;99296.66;;;6.18;100.00
23996;BME280;12207;50.076;8.848;2022-11-24T01:15:22;99298.50;;;6.20;100.00
23996;BME280;12207;50.076;8.848;2022-11-24T01:17:48;99309.75;;;6.25;100.00
23996;BME280;12207;50.076;8.848;2022-11-24T01:20:15;99314.94;;;6.43;100.00
23996;BME280;12207;50.076;8.848;2022-11-24T01:22:42;99313.72;;;6.36;100.00
23996;BME280;12207;50.076;8.848;2022-11-24T01:25:09;99321.41;;;6.38;100.00
23996;BME280;12207;50.076;8.848;2022-11-24T01:27:36;99318.19;;;6.41;100.00
23996;BME280;12207;50.076;8.848;2022-11-24T01:30:05;99327.94;;;6.49;100.00
23996;BME280;12207;50.076;8.848;2022-11-24T01:32:32;99322.41;;;6.56;100.00
23996;BME280;12207;50.076;8.848;2022-11-24T01:34:59;99325.19;;;6.61;100.00
23996;BME280;12207;50.076;8.848;2022-11-24T01:37:25;99320.22;;;6.79;100.00
23996;BME280;12207;50.076;8.848;2022-11-24T01:39:52;99328.91;;;6.84;100.00
23996;BME280;12207;50.076;8.848;2022-11-24T01:42:18;99331.38;;;6.82;100.00
23996;BME280;12207;50.076;8.848;2022-11-24T01:44:46;99337.63;;;6.89;100.00
23996;BME280;12207;50.076;8.848;2022-11-24T01:49:40;99339.47;;;6.92;100.00
23996;BME280;12207;50.076;8.848;2022-11-24T01:54:35;99337.47;;;6.86;100.00
23996;BME280;12207;50.076;8.848;2022-11-24T01:57:26;99336.34;;;6.81;100.00
23996;BME280;12207;50.076;8.848;2022-11-24T01:59:52;99336.44;;;6.82;100.00
23996;BME280;12207;50.076;8.848;2022-11-24T02:02:20;99345.03;;;6.84;100.00
23996;BME280;12207;50.076;8.848;2022-11-24T02:04:47;99344.38;;;6.89;100.00
23996;BME280;12207;50.076;8.848;2022-11-24T02:07:13;99344.69;;;6.95;100.00
23996;BME280;12207;50.076;8.848;2022-11-24T02:09:56;99349.22;;;7.00;100.00
23996;BME280;12207;50.076;8.848;2022-11-24T02:12:24;99351.91;;;7.03;100.00
23996;BME280;12207;50.076;8.848;2022-11-24T02:14:52;99354.34;;;7.02;100.00
23996;BME280;12207;50.076;8.848;2022-11-24T02:17:20;99348.97;;;7.12;100.00
23996;BME280;12207;50.076;8.848;2022-11-24T02:19:56;99357.69;;;7.17;100.00
23996;BME280;12207;50.076;8.848;2022-11-24T02:24:55;99360.69;;;7.26;100.00
23996;BME280;12207;50.076;8.848;2022-11-24T02:27:26;99357.91;;;7.38;100.00
23996;BME280;12207;50.076;8.848;2022-11-24T02:29:53;99355.69;;;7.44;100.00
23996;BME280;12207;50.076;8.848;2022-11-24T02:32:19;99359.94;;;7.45;100.00
23996;BME280;12207;50.076;8.848;2022-11-24T02:34:46;99358.38;;;7.47;100.00
23996;BME280;12207;50.076;8.848;2022-11-24T02:37:13;99353.69;;;7.39;100.00
23996;BME280;12207;50.076;8.848;2022-11-24T02:39:39;99352.13;;;7.41;100.00
23996;BME280;12207;50.076;8.848;2022-11-24T02:42:09;99343.53;;;7.39;100.00
23996;BME280;12207;50.076;8.848;2022-11-24T02:44:40;99352.84;;;7.38;100.00
23996;BME280;12207;50.076;8.848;2022-11-24T02:47:09;99348.94;;;7.45;100.00
23996;BME280;12207;50.076;8.848;2022-11-24T02:49:36;99347.97;;;7.43;100.00
23996;BME280;12207;50.076;8.848;2022-11-24T02:52:03;99344.66;;;7.44;100.00
23996;BME280;12207;50.076;8.848;2022-11-24T02:54:29;99344.16;;;7.51;100.00
23996;BME280;12207;50.076;8.848;2022-11-24T02:56:56;99341.47;;;7.48;100.00
23996;BME280;12207;50.076;8.848;2022-11-24T02:59:23;99343.59;;;7.57;100.00
23996;BME280;12207;50.076;8.848;2022-11-24T03:01:49;99348.00;;;7.61;100.00
23996;BME280;12207;50.076;8.848;2022-11-24T03:04:16;99348.09;;;7.62;100.00
23996;BME280;12207;50.076;8.848;2022-11-24T03:06:42;99346.41;;;7.63;100.00
23996;BME280;12207;50.076;8.848;2022-11-24T03:09:09;99352.53;;;7.66;100.00
23996;BME280;12207;50.076;8.848;2022-11-24T03:11:37;99348.31;;;7.67;100.00
23996;BME280;12207;50.076;8.848;2022-11-24T03:14:03;99353.63;;;7.71;100.00
23996;BME280;12207;50.076;8.848;2022-11-24T03:16:30;99367.91;;;7.69;100.00
23996;BME280;12207;50.076;8.848;2022-11-24T03:18:57;99366.03;;;7.65;100.00
23996;BME280;12207;50.076;8.848;2022-11-24T03:21:23;99364.25;;;7.64;100.00
23996;BME280;12207;50.076;8.848;2022-11-24T03:23:50;99362.69;;;7.66;100.00
23996;BME280;12207;50.076;8.848;2022-11-24T03:26:18;99367.84;;;7.68;100.00
23996;BME280;12207;50.076;8.848;2022-11-24T03:28:45;99371.16;;;7.67;100.00
23996;BME280;12207;50.076;8.848;2022-11-24T03:31:11;99380.53;;;7.68;100.00
23996;BME280;12207;50.076;8.848;2022-11-24T03:33:38;99376.38;;;7.70;100.00
23996;BME280;12207;50.076;8.848;2022-11-24T03:36:05;99379.59;;;7.66;100.00
23996;BME280;12207;50.076;8.848;2022-11-24T03:38:32;99377.56;;;7.59;100.00
23996;BME280;12207;50.076;8.848;2022-11-24T03:40:59;99381.72;;;7.58;100.00
23996;BME280;12207;50.076;8.848;2022-11-24T03:43:25;99374.84;;;7.56;100.00
23996;BME280;12207;50.076;8.848;2022-11-24T03:45:52;99379.84;;;7.54;100.00
23996;BME280;12207;50.076;8.848;2022-11-24T03:48:18;99374.47;;;7.48;100.00
23996;BME280;12207;50.076;8.848;2022-11-24T03:50:55;99368.44;;;7.46;100.00
23996;BME280;12207;50.076;8.848;2022-11-24T03:53:22;99379.53;;;7.31;100.00
23996;BME280;12207;50.076;8.848;2022-11-24T03:55:49;99376.44;;;7.37;100.00
23996;BME280;12207;50.076;8.848;2022-11-24T03:58:15;99370.34;;;7.34;100.00
23996;BME280;12207;50.076;8.848;2022-11-24T04:00:42;99370.84;;;7.26;100.00
23996;BME280;12207;50.076;8.848;2022-11-24T04:03:08;99362.63;;;7.14;100.00
23996;BME280;12207;50.076;8.848;2022-11-24T04:05:35;99376.56;;;7.06;100.00
23996;BME280;12207;50.076;8.848;2022-11-24T04:08:02;99382.66;;;7.10;100.00
23996;BME280;12207;50.076;8.848;2022-11-24T04:10:31;99385.44;;;6.98;100.00
23996;BME280;12207;50.076;8.848;2022-11-24T04:12:58;99385.28;;;6.95;100.00
23996;BME280;12207;50.076;8.848;2022-11-24T04:15:24;99396.06;;;6.91;100.00
23996;BME280;12207;50.076;8.848;2022-11-24T04:17:52;99396.84;;;6.90;100.00
23996;BME280;12207;50.076;8.848;2022-11-24T04:20:19;99396.84;;;6.90;100.00
23996;BME280;12207;50.076;8.848;2022-11-24T04:22:46;99398.44;;;6.88;100.00
23996;BME280;12207;50.076;8.848;2022-11-24T04:25:14;99401.13;;;6.91;100.00
23996;BME280;12207;50.076;8.848;2022-11-24T04:27:42;99403.34;;;6.84;100.00
23996;BME280;12207;50.076;8.848;2022-11-24T04:30:09;99413.81;;;6.91;100.00
23996;BME280;12207;50.076;8.848;2022-11-24T04:32:36;99412.44;;;6.81;100.00
23996;BME280;12207;50.076;8.848;2022-11-24T04:35:02;99407.28;;;6.79;100.00
23996;BME280;12207;50.076;8.848;2022-11-24T04:37:29;99414.97;;;6.81;100.00
23996;BME280;12207;50.076;8.848;2022-11-24T04:39:56;99418.41;;;6.81;100.00
23996;BME280;12207;50.076;8.848;2022-11-24T04:42:22;99417.72;;;6.69;100.00
23996;BME280;12207;50.076;8.848;2022-11-24T04:44:49;99428.66;;;6.68;100.00
23996;BME280;12207;50.076;8.848;2022-11-24T04:47:16;99432.50;;;6.76;100.00
23996;BME280;12207;50.076;8.848;2022-11-24T04:49:43;99432.66;;;6.96;100.00
23996;BME280;12207;50.076;8.848;2022-11-24T04:52:11;99430.38;;;7.00;100.00
23996;BME280;12207;50.076;8.848;2022-11-24T04:54:38;99432.69;;;7.12;100.00
23996;BME280;12207;50.076;8.848;2022-11-24T04:57:04;99430.09;;;7.27;100.00
23996;BME280;12207;50.076;8.848;2022-11-24T04:59:32;99440.47;;;7.48;100.00
23996;BME280;12207;50.076;8.848;2022-11-24T05:01:58;99445.94;;;7.56;100.00
23996;BME280;12207;50.076;8.848;2022-11-24T05:04:25;99455.69;;;7.64;100.00
23996;BME280;12207;50.076;8.848;2022-11-24T05:06:51;99459.16;;;7.83;100.00
23996;BME280;12207;50.076;8.848;2022-11-24T05:09:18;99457.56;;;7.85;100.00
23996;BME280;12207;50.076;8.848;2022-11-24T05:11:44;99453.44;;;7.87;100.00
23996;BME280;12207;50.076;8.848;2022-11-24T05:14:11;99463.69;;;7.88;100.00
23996;BME280;12207;50.076;8.848;2022-11-24T05:16:37;99452.78;;;7.91;100.00
23996;BME280;12207;50.076;8.848;2022-11-24T05:19:04;99464.72;;;7.92;100.00
23996;BME280;12207;50.076;8.848;2022-11-24T05:21:30;99466.44;;;7.93;100.00
23996;BME280;12207;50.076;8.848;2022-11-24T05:23:57;99461.03;;;8.03;100.00
23996;BME280;12207;50.076;8.848;2022-11-24T05:26:23;99463.34;;;7.98;100.00
23996;BME280;12207;50.076;8.848;2022-11-24T05:28:50;99471.81;;;7.99;100.00
23996;BME280;12207;50.076;8.848;2022-11-24T05:31:16;99471.63;;;7.94;100.00
23996;BME280;12207;50.076;8.848;2022-11-24T05:33:43;99480.81;;;7.92;100.00
23996;BME280;12207;50.076;8.848;2022-11-24T05:36:10;99476.31;;;7.87;100.00
23996;BME280;12207;50.076;8.848;2022-11-24T05:38:58;99484.56;;;7.83;100.00
23996;BME280;12207;50.076;8.848;2022-11-24T05:41:25;99492.03;;;7.80;100.00
23996;BME280;12207;50.076;8.848;2022-11-24T05:43:51;99482.97;;;7.85;100.00
23996;BME280;12207;50.076;8.848;2022-11-24T05:46:18;99495.25;;;7.93;100.00
23996;BME280;12207;50.076;8.848;2022-11-24T05:48:44;99494.47;;;7.94;100.00
23996;BME280;12207;50.076;8.848;2022-11-24T05:51:11;99495.50;;;7.98;100.00
23996;BME280;12207;50.076;8.848;2022-11-24T05:53:37;99500.03;;;8.04;100.00
23996;BME280;12207;50.076;8.848;2022-11-24T05:56:04;99504.00;;;7.98;100.00
23996;BME280;12207;50.076;8.848;2022-11-24T05:58:31;99500.03;;;8.04;100.00
23996;BME280;12207;50.076;8.848;2022-11-24T06:00:57;99506.69;;;8.02;100.00
23996;BME280;12207;50.076;8.848;2022-11-24T06:03:24;99499.47;;;8.09;100.00
23996;BME280;12207;50.076;8.848;2022-11-24T06:05:50;99499.59;;;8.12;100.00
23996;BME280;12207;50.076;8.848;2022-11-24T06:08:16;99491.75;;;8.08;100.00
23996;BME280;12207;50.076;8.848;2022-11-24T06:10:43;99501.50;;;8.16;100.00
23996;BME280;12207;50.076;8.848;2022-11-24T06:13:09;99502.94;;;8.11;100.00
23996;BME280;12207;50.076;8.848;2022-11-24T06:15:36;99500.22;;;8.08;100.00
23996;BME280;12207;50.076;8.848;2022-11-24T06:18:03;99497.84;;;8.11;100.00
23996;BME280;12207;50.076;8.848;2022-11-24T06:20:29;99496.91;;;8.09;100.00
23996;BME280;12207;50.076;8.848;2022-11-24T06:22:56;99503.78;;;8.12;100.00
23996;BME280;12207;50.076;8.848;2022-11-24T06:25:23;99508.97;;;8.13;100.00
23996;BME280;12207;50.076;8.848;2022-11-24T06:27:49;99505.75;;;8.17;100.00
23996;BME280;12207;50.076;8.848;2022-11-24T06:30:16;99505.75;;;8.17;100.00
23996;BME280;12207;50.076;8.848;2022-11-24T06:32:42;99506.66;;;8.18;100.00
23996;BME280;12207;50.076;8.848;2022-11-24T06:35:11;99507.69;;;8.21;100.00
23996;BME280;12207;50.076;8.848;2022-11-24T06:37:38;99511.50;;;8.13;100.00
23996;BME280;12207;50.076;8.848;2022-11-24T06:40:05;99509.25;;;8.19;100.00
23996;BME280;12207;50.076;8.848;2022-11-24T06:42:34;99512.69;;;8.20;100.00
23996;BME280;12207;50.076;8.848;2022-11-24T06:45:01;99511.31;;;8.27;100.00
23996;BME280;12207;50.076;8.848;2022-11-24T06:47:27;99522.44;;;8.29;100.00
23996;BME280;12207;50.076;8.848;2022-11-24T06:49:54;99519.53;;;8.21;100.00
23996;BME280;12207;50.076;8.848;2022-11-24T06:52:21;99528.63;;;8.17;100.00
23996;BME280;12207;50.076;8.848;2022-11-24T06:54:47;99525.38;;;8.20;100.00
23996;BME280;12207;50.076;8.848;2022-11-24T06:57:14;99528.38;;;8.29;100.00
23996;BME280;12207;50.076;8.848;2022-11-24T06:59:40;99521.31;;;8.23;100.00
23996;BME280;12207;50.076;8.848;2022-11-24T07:02:08;99524.81;;;8.26;100.00
23996;BME280;12207;50.076;8.848;2022-11-24T07:04:35;99525.84;;;8.29;100.00
23996;BME280;12207;50.076;8.848;2022-11-24T07:07:01;99531.88;;;8.31;100.00
23996;BME280;12207;50.076;8.848;2022-11-24T07:09:28;99539.50;;;8.31;100.00
23996;BME280;12207;50.076;8.848;2022-11-24T07:11:54;99545.31;;;8.29;100.00
23996;BME280;12207;50.076;8.848;2022-11-24T07:14:22;99543.06;;;8.35;100.00
23996;BME280;12207;50.076;8.848;2022-11-24T07:16:48;99543.06;;;8.35;100.00
23996;BME280;12207;50.076;8.848;2022-11-24T07:19:14;99548.31;;;8.38;100.00
23996;BME280;12207;50.076;8.848;2022-11-24T07:21:41;99549.28;;;8.40;100.00
23996;BME280;12207;50.076;8.848;2022-11-24T07:24:08;99549.19;;;8.38;100.00
23996;BME280;12207;50.076;8.848;2022-11-24T07:26:34;99559.13;;;8.34;100.00
23996;BME280;12207;50.076;8.848;2022-11-24T07:29:03;99559.28;;;8.37;100.00
23996;BME280;12207;50.076;8.848;2022-11-24T07:31:30;99557.94;;;8.43;100.00
23996;BME280;12207;50.076;8.848;2022-11-24T07:33:56;99568.09;;;8.43;100.00
23996;BME280;12207;50.076;8.848;2022-11-24T07:36:23;99562.00;;;8.40;100.00
23996;BME280;12207;50.076;8.848;2022-11-24T07:38:50;99575.25;;;8.51;100.00
23996;BME280;12207;50.076;8.848;2022-11-24T07:41:17;99573.34;;;8.47;100.00
23996;BME280;12207;50.076;8.848;2022-11-24T07:43:45;99575.09;;;8.48;100.00
23996;BME280;12207;50.076;8.848;2022-11-24T07:46:12;99578.44;;;8.47;100.00
23996;BME280;12207;50.076;8.848;2022-11-24T07:48:39;99577.72;;;8.49;100.00
23996;BME280;12207;50.076;8.848;2022-11-24T07:51:06;99582.22;;;8.55;100.00
23996;BME280;12207;50.076;8.848;2022-11-24T07:53:32;99580.00;;;8.61;100.00
23996;BME280;12207;50.076;8.848;2022-11-24T07:56:00;99592.72;;;8.61;100.00
23996;BME280;12207;50.076;8.848;2022-11-24T07:58:30;99587.31;;;8.55;100.00
23996;BME280;12207;50.076;8.848;2022-11-24T08:00:57;99587.88;;;8.49;100.00
23996;BME280;12207;50.076;8.848;2022-11-24T08:03:23;99583.47;;;8.45;100.00
23996;BME280;12207;50.076;8.848;2022-11-24T08:05:57;99583.09;;;8.55;100.00
23996;BME280;12207;50.076;8.848;2022-11-24T08:08:24;99584.06;;;8.57;100.00
23996;BME280;12207;50.076;8.848;2022-11-24T08:10:51;99588.44;;;8.60;100.00
23996;BME280;12207;50.076;8.848;2022-11-24T08:13:18;99596.06;;;8.60;100.00
23996;BME280;12207;50.076;8.848;2022-11-24T08:15:44;99596.41;;;8.67;100.00
23996;BME280;12207;50.076;8.848;2022-11-24T08:18:11;99603.56;;;8.75;100.00
23996;BME280;12207;50.076;8.848;2022-11-24T08:20:38;99606.97;;;8.75;100.00
23996;BME280;12207;50.076;8.848;2022-11-24T08:23:04;99611.09;;;8.73;100.00
23996;BME280;12207;50.076;8.848;2022-11-24T08:25:31;99607.19;;;8.80;100.00
23996;BME280;12207;50.076;8.848;2022-11-24T08:28:01;99615.06;;;8.84;100.00
23996;BME280;12207;50.076;8.848;2022-11-24T08:30:28;99609.09;;;8.84;100.00
23996;BME280;12207;50.076;8.848;2022-11-24T08:32:56;99615.78;;;8.82;100.00
23996;BME280;12207;50.076;8.848;2022-11-24T08:35:23;99610.84;;;8.85;100.00
23996;BME280;12207;50.076;8.848;2022-11-24T08:37:50;99617.66;;;8.86;100.00
23996;BME280;12207;50.076;8.848;2022-11-24T08:40:16;99608.88;;;8.79;100.00
23996;BME280;12207;50.076;8.848;2022-11-24T08:42:43;99626.91;;;8.84;100.00
23996;BME280;12207;50.076;8.848;2022-11-24T08:45:09;99632.72;;;8.81;100.00
23996;BME280;12207;50.076;8.848;2022-11-24T08:47:36;99621.53;;;8.78;100.00
23996;BME280;12207;50.076;8.848;2022-11-24T08:50:02;99623.13;;;8.76;100.00
23996;BME280;12207;50.076;8.848;2022-11-24T08:52:29;99626.47;;;8.75;100.00
23996;BME280;12207;50.076;8.848;2022-11-24T08:54:56;99630.31;;;8.84;100.00
23996;BME280;12207;50.076;8.848;2022-11-24T08:57:22;99632.22;;;9.06;100.00
23996;BME280;12207;50.076;8.848;2022-11-24T08:59:50;99635.63;;;9.25;100.00
23996;BME280;12207;50.076;8.848;2022-11-24T09:02:16;99647.50;;;9.42;100.00
23996;BME280;12207;50.076;8.848;2022-11-24T09:04:43;99650.13;;;9.62;100.00
23996;BME280;12207;50.076;8.848;2022-11-24T09:07:10;99650.34;;;9.86;100.00
23996;BME280;12207;50.076;8.848;2022-11-24T09:09:37;99646.22;;;9.88;100.00
23996;BME280;12207;50.076;8.848;2022-11-24T09:12:04;99647.75;;;9.66;100.00
23996;BME280;12207;50.076;8.848;2022-11-24T09:14:30;99644.44;;;9.67;100.00
23996;BME280;12207;50.076;8.848;2022-11-24T09:16:57;99643.47;;;9.65;100.00
23996;BME280;12207;50.076;8.848;2022-11-24T09:19:23;99638.34;;;9.83;100.00
23996;BME280;12207;50.076;8.848;2022-11-24T09:21:50;99646.31;;;10.47;100.00
23996;BME280;12207;50.076;8.848;2022-11-24T09:24:16;99649.16;;;10.75;100.00
23996;BME280;12207;50.076;8.848;2022-11-24T09:26:43;99647.59;;;10.99;100.00
23996;BME280;12207;50.076;8.848;2022-11-24T09:29:10;99647.56;;;10.57;100.00
23996;BME280;12207;50.076;8.848;2022-11-24T09:31:37;99662.19;;;10.22;100.00
23996;BME280;12207;50.076;8.848;2022-11-24T09:34:05;99655.84;;;10.72;100.00
23996;BME280;12207;50.076;8.848;2022-11-24T09:36:32;99674.25;;;11.06;100.00
23996;BME280;12207;50.076;8.848;2022-11-24T09:38:59;99679.88;;;11.84;100.00
23996;BME280;12207;50.076;8.848;2022-11-24T09:41:29;99679.84;;;12.05;100.00
23996;BME280;12207;50.076;8.848;2022-11-24T09:49:21;99697.28;;;11.72;100.00
23996;BME280;12207;50.076;8.848;2022-11-24T09:51:49;99693.81;;;11.26;100.00
23996;BME280;12207;50.076;8.848;2022-11-24T09:54:19;99700.91;;;11.33;100.00
23996;BME280;12207;50.076;8.848;2022-11-24T09:56:47;99699.91;;;11.09;100.00
23996;BME280;12207;50.076;8.848;2022-11-24T10:01:43;99704.81;;;10.64;100.00
23996;BME280;12207;50.076;8.848;2022-11-24T10:04:15;99707.94;;;10.57;100.00
23996;BME280;12207;50.076;8.848;2022-11-24T10:14:55;99723.78;;;10.30;100.00
23996;BME280;12207;50.076;8.848;2022-11-24T10:22:59;99726.94;;;10.63;100.00
23996;BME280;12207;50.076;8.848;2022-11-24T10:28:01;99715.72;;;11.21;100.00
23996;BME280;12207;50.076;8.848;2022-11-24T10:30:28;99730.00;;;11.16;100.00
23996;BME280;12207;50.076;8.848;2022-11-24T10:35:41;99723.69;;;11.08;100.00
23996;BME280;12207;50.076;8.848;2022-11-24T10:40:47;99728.69;;;11.26;100.00
23996;BME280;12207;50.076;8.848;2022-11-24T10:43:17;99721.03;;;11.26;100.00
23996;BME280;12207;50.076;8.848;2022-11-24T10:45:44;99729.81;;;11.11;100.00
23996;BME280;12207;50.076;8.848;2022-11-24T10:48:24;99736.72;;;11.14;100.00
23996;BME280;12207;50.076;8.848;2022-11-24T10:50:56;99739.59;;;11.01;100.00
23996;BME280;12207;50.076;8.848;2022-11-24T10:53:28;99747.50;;;11.07;100.00
23996;BME280;12207;50.076;8.848;2022-11-24T10:58:22;99731.38;;;11.29;100.00
23996;BME280;12207;50.076;8.848;2022-11-24T11:00:49;99738.28;;;11.10;100.00
23996;BME280;12207;50.076;8.848;2022-11-24T11:03:21;99737.25;;;10.86;100.00
23996;BME280;12207;50.076;8.848;2022-11-24T11:06:09;99742.25;;;10.83;100.00
23996;BME280;12207;50.076;8.848;2022-11-24T11:08:34;99750.28;;;10.92;100.00
23996;BME280;12207;50.076;8.848;2022-11-24T11:11:20;99742.53;;;11.10;100.00
23996;BME280;12207;50.076;8.848;2022-11-24T11:13:51;99751.44;;;11.40;100.00
23996;BME280;12207;50.076;8.848;2022-11-24T11:16:24;99758.16;;;11.38;100.00
23996;BME280;12207;50.076;8.848;2022-11-24T11:18:51;99744.88;;;11.47;100.00
23996;BME280;12207;50.076;8.848;2022-11-24T11:21:30;99741.13;;;11.60;100.00
23996;BME280;12207;50.076;8.848;2022-11-24T11:23:57;99747.31;;;11.65;100.00
23996;BME280;12207;50.076;8.848;2022-11-24T11:31:29;99758.97;;;11.37;100.00
23996;BME280;12207;50.076;8.848;2022-11-24T11:34:00;99762.16;;;11.32;100.00
23996;BME280;12207;50.076;8.848;2022-11-24T11:36:27;99765.44;;;11.29;100.00
23996;BME280;12207;50.076;8.848;2022-11-24T11:38:54;99765.69;;;11.14;100.00
23996;BME280;12207;50.076;8.848;2022-11-24T11:41:29;99762.59;;;11.22;100.00
23996;BME280;12207;50.076;8.848;2022-11-24T11:44:03;99762.38;;;11.17;100.00
23996;BME280;12207;50.076;8.848;2022-11-24T11:46:32;99765.03;;;10.99;100.00
23996;BME280;12207;50.076;8.848;2022-11-24T11:48:59;99769.41;;;10.82;100.00
23996;BME280;12207;50.076;8.848;2022-11-24T11:51:44;99770.97;;;10.79;100.00
23996;BME280;12207;50.076;8.848;2022-11-24T12:22:47;99787.13;;;11.39;100.00
23996;BME280;12207;50.076;8.848;2022-11-24T12:25:21;99796.63;;;11.62;100.00
23996;BME280;12207;50.076;8.848;2022-11-24T12:30:15;99801.06;;;11.88;100.00
23996;BME280;12207;50.076;8.848;2022-11-24T12:33:31;99799.16;;;11.83;100.00
23996;BME280;12207;50.076;8.848;2022-11-24T12:35:35;99804.00;;;11.97;100.00
23996;BME280;12207;50.076;8.848;2022-11-24T12:43:36;99802.00;;;11.90;100.00
23996;BME280;12207;50.076;8.848;2022-11-24T12:46:06;99807.94;;;11.89;100.00
23996;BME280;12207;50.076;8.848;2022-11-24T12:51:06;99808.22;;;11.75;100.00
23996;BME280;12207;50.076;8.848;2022-11-24T12:53:38;99811.44;;;11.71;100.00
23996;BME280;12207;50.076;8.848;2022-11-24T12:56:06;99808.66;;;11.44;100.00
23996;BME280;12207;50.076;8.848;2022-11-24T12:58:46;99813.88;;;11.47;100.00
23996;BME280;12207;50.076;8.848;2022-11-24T13:06:43;99814.97;;;11.33;100.00
23996;BME280;12207;50.076;8.848;2022-11-24T13:09:13;99815.13;;;11.36;100.00
23996;BME280;12207;50.076;8.848;2022-11-24T13:11:40;99815.69;;;11.29;100.00
23996;BME280;12207;50.076;8.848;2022-11-24T13:16:47;99821.16;;;11.38;100.00
23996;BME280;12207;50.076;8.848;2022-11-24T13:19:16;99827.88;;;11.36;100.00
23996;BME280;12207;50.076;8.848;2022-11-24T13:21:46;99829.66;;;11.37;100.00
23996;BME280;12207;50.076;8.848;2022-11-24T13:39:50;99840.38;;;11.49;99.40
23996;BME280;12207;50.076;8.848;2022-11-24T13:42:17;99843.00;;;11.51;100.00
23996;BME280;12207;50.076;8.848;2022-11-24T13:52:56;99855.22;;;11.58;100.00
23996;BME280;12207;50.076;8.848;2022-11-24T13:55:32;99856.00;;;11.57;100.00
23996;BME280;12207;50.076;8.848;2022-11-24T14:00:55;99845.59;;;11.31;100.00
23996;BME280;12207;50.076;8.848;2022-11-24T14:03:25;99851.06;;;11.20;100.00
23996;BME280;12207;50.076;8.848;2022-11-24T14:05:52;99850.97;;;11.18;100.00
23996;BME280;12207;50.076;8.848;2022-11-24T14:08:29;99847.38;;;11.13;100.00
23996;BME280;12207;50.076;8.848;2022-11-24T14:10:57;99847.88;;;11.06;100.00
23996;BME280;12207;50.076;8.848;2022-11-24T14:13:24;99847.34;;;10.93;100.00
23996;BME280;12207;50.076;8.848;2022-11-24T14:18:38;99845.44;;;10.70;100.00
23996;BME280;12207;50.076;8.848;2022-11-24T14:21:16;99841.97;;;10.68;100.00
23996;BME280;12207;50.076;8.848;2022-11-24T14:23:44;99836.53;;;10.60;100.00
23996;BME280;12207;50.076;8.848;2022-11-24T14:26:21;99835.50;;;10.57;100.00
23996;BME280;12207;50.076;8.848;2022-11-24T14:28:49;99833.06;;;10.40;100.00
23996;BME280;12207;50.076;8.848;2022-11-24T14:31:23;99836.97;;;10.52;100.00
23996;BME280;12207;50.076;8.848;2022-11-24T14:33:50;99840.97;;;10.46;100.00
23996;BME280;12207;50.076;8.848;2022-11-24T14:36:31;99840.50;;;10.36;100.00
23996;BME280;12207;50.076;8.848;2022-11-24T14:38:58;99846.97;;;10.29;100.00
23996;BME280;12207;50.076;8.848;2022-11-24T14:41:25;99851.44;;;10.33;100.00
23996;BME280;12207;50.076;8.848;2022-11-24T14:46:32;99848.44;;;10.24;100.00
23996;BME280;12207;50.076;8.848;2022-11-24T14:48:59;99858.25;;;10.16;100.00
23996;BME280;12207;50.076;8.848;2022-11-24T14:51:27;99846.91;;;10.10;100.00
23996;BME280;12207;50.076;8.848;2022-11-24T14:53:56;99853.75;;;10.11;100.00
23996;BME280;12207;50.076;8.848;2022-11-24T14:56:25;99854.41;;;10.07;100.00
23996;BME280;12207;50.076;8.848;2022-11-24T14:58:52;99852.59;;;10.04;100.00
23996;BME280;12207;50.076;8.848;2022-11-24T15:03:45;99853.88;;;9.96;100.00
23996;BME280;12207;50.076;8.848;2022-11-24T15:06:16;99862.84;;;9.88;100.00
23996;BME280;12207;50.076;8.848;2022-11-24T15:08:45;99859.84;;;9.78;100.00
23996;BME280;12207;50.076;8.848;2022-11-24T15:11:12;99863.75;;;9.72;100.00